Terminal Aerodrome Forecast
Issued by NWS

Home | Current Version | Previous Version | Graphics & Text | Print | Product List | Glossary On
Versions: 1 2 3 4 5 6 7 8 9 10 11 12 13 14 15 16 17
916
FTUS43 KBIS 240520
TAFJMS
TAF
KJMS 240520Z 2406/2506 14011KT P6SM SCT090 BKN200
     FM240900 16008KT P6SM VCTS FEW050CB BKN200
     FM241300 17007KT P6SM FEW050 SCT200
     FM242300 22013G21KT P6SM FEW060 FEW250
     FM250200 24008KT P6SM FEW060 FEW200=

USA.gov is the U.S. government's official web portal to all federal, state and local government web resources and services.